createdAt,value
2018-06-18T00:00:19.788Z,19.73
2018-06-18T00:03:01.124Z,19.71
2018-06-18T00:05:47.945Z,19.72
2018-06-18T00:08:29.085Z,19.74
2018-06-18T00:11:08.518Z,19.76
2018-06-18T00:13:53.986Z,19.74
2018-06-18T00:16:40.450Z,19.72
2018-06-18T00:19:20.389Z,19.73
2018-06-18T00:22:02.448Z,19.75
2018-06-18T00:24:47.283Z,19.78
2018-06-18T00:27:27.962Z,19.80
2018-06-18T00:30:09.078Z,19.81
2018-06-18T01:56:08.121Z,19.65
2018-06-18T01:58:47.761Z,19.63
2018-06-18T02:01:28.917Z,19.60
2018-06-18T02:04:10.484Z,19.58
2018-06-18T02:27:35.177Z,19.38
2018-06-18T02:30:18.001Z,19.38
2018-06-18T02:33:06.246Z,19.39
2018-06-18T02:35:49.306Z,19.38
2018-06-18T02:38:33.161Z,19.39
2018-06-18T02:41:12.380Z,19.41
2018-06-18T02:43:52.986Z,19.39
2018-06-18T02:46:32.918Z,19.37
2018-06-18T02:49:14.017Z,19.37
2018-06-18T02:51:54.441Z,19.39
2018-06-18T02:54:35.100Z,19.40
2018-06-18T02:57:17.868Z,19.41
2018-06-18T02:59:59.559Z,19.39
2018-06-18T03:02:41.118Z,19.40
2018-06-18T03:05:21.495Z,19.40
2018-06-18T03:08:03.621Z,19.38
2018-06-18T03:10:43.006Z,19.40
2018-06-18T03:13:22.840Z,19.33
2018-06-18T03:16:04.241Z,19.30
2018-06-18T03:18:49.140Z,19.28
2018-06-18T03:21:36.942Z,19.27
2018-06-18T03:24:20.646Z,19.26
2018-06-18T03:27:02.961Z,19.22
2018-06-18T03:29:42.963Z,19.20
2018-06-18T03:32:26.260Z,19.20
2018-06-18T03:35:09.082Z,19.19
2018-06-18T03:37:49.060Z,19.18
2018-06-18T03:40:32.659Z,19.16
2018-06-18T03:43:12.300Z,19.14
2018-06-18T03:45:53.862Z,19.16
2018-06-18T03:48:35.116Z,19.14
2018-06-18T03:51:15.478Z,19.13
2018-06-18T03:53:56.359Z,19.14
2018-06-18T03:56:38.605Z,19.15
2018-06-18T03:59:18.998Z,19.16
2018-06-18T04:02:33.377Z,19.18
2018-06-18T04:05:16.749Z,19.09
2018-06-18T04:08:03.136Z,19.06
2018-06-18T04:10:49.002Z,19.03
2018-06-18T04:13:28.018Z,19.02
2018-06-18T04:16:09.178Z,19.00
2018-06-18T04:18:57.523Z,19.03
2018-06-18T04:21:39.820Z,19.10
2018-06-18T04:24:25.937Z,19.15
2018-06-18T04:27:08.400Z,19.17
2018-06-18T05:02:40.498Z,19.34
2018-06-18T05:40:55.263Z,19.89
2018-06-18T05:43:38.959Z,19.94
2018-06-18T05:46:17.296Z,19.91
2018-06-18T05:49:01.159Z,19.89
2018-06-18T05:51:46.587Z,19.92
2018-06-18T05:54:31.242Z,19.96
2018-06-18T05:57:17.244Z,20.02
2018-06-18T06:00:01.789Z,19.98
2018-06-18T06:02:41.442Z,19.99
2018-06-18T06:05:24.581Z,19.99
2018-06-18T06:08:07.557Z,20.02
2018-06-18T06:10:49.040Z,20.04
2018-06-18T06:13:26.759Z,19.97
2018-06-18T06:16:08.561Z,19.94
2018-06-18T06:18:49.133Z,19.99
2018-06-18T06:21:32.119Z,20.02
2018-06-18T06:24:18.703Z,20.01
2018-06-18T06:27:02.085Z,19.96
2018-06-18T06:29:42.149Z,19.99
2018-06-18T06:32:21.219Z,20.01
2018-06-18T06:35:08.821Z,20.10
2018-06-18T06:37:49.459Z,20.15
2018-06-18T06:40:31.860Z,20.20
2018-06-18T06:43:19.920Z,20.28
2018-06-18T06:45:59.862Z,20.40
2018-06-18T06:48:44.123Z,20.54
2018-06-18T06:51:34.199Z,20.63
2018-06-18T06:54:22.036Z,20.68
2018-06-18T07:50:25.424Z,23.33
2018-06-18T07:53:04.418Z,23.70
2018-06-18T07:55:44.543Z,24.30
2018-06-18T07:58:29.202Z,24.66
2018-06-18T08:01:11.907Z,24.86
2018-06-18T08:03:53.958Z,24.92
2018-06-18T08:06:40.540Z,25.06
2018-06-18T08:09:28.637Z,25.19
2018-06-18T08:12:07.722Z,25.19
2018-06-18T08:14:46.960Z,25.14
2018-06-18T08:17:32.341Z,25.10
2018-06-18T08:20:19.125Z,24.95
2018-06-18T08:22:58.800Z,24.83
2018-06-18T09:31:10.009Z,24.69
2018-06-18T09:33:49.461Z,24.78
2018-06-18T09:36:30.777Z,24.90
2018-06-18T09:39:09.340Z,24.90
2018-06-18T09:41:50.923Z,24.88
2018-06-18T09:44:33.461Z,24.93
2018-06-18T09:47:20.181Z,24.97
2018-06-18T09:50:06.197Z,25.00
2018-06-18T09:52:52.320Z,24.98
2018-06-18T09:55:39.595Z,24.97
2018-06-18T09:58:24.880Z,25.14
2018-06-18T10:01:19.183Z,25.24
2018-06-18T10:04:06.440Z,25.20
2018-06-18T10:06:57.838Z,25.21
2018-06-18T10:39:18.442Z,25.30
2018-06-18T10:42:04.018Z,25.40
2018-06-18T10:44:45.674Z,25.53
2018-06-18T10:47:27.765Z,25.60
2018-06-18T10:50:06.602Z,25.73
2018-06-18T10:52:47.717Z,25.90
2018-06-18T10:55:26.473Z,25.96
2018-06-18T10:58:06.565Z,26.11
2018-06-18T11:00:47.677Z,26.22
2018-06-18T11:03:36.119Z,26.23
2018-06-18T11:06:22.301Z,26.16
2018-06-18T11:09:06.359Z,26.27
2018-06-18T11:11:51.964Z,26.29
2018-06-18T11:14:36.140Z,26.52
2018-06-18T11:17:25.752Z,26.57
2018-06-18T11:20:08.699Z,26.31
2018-06-18T11:22:54.927Z,26.03
2018-06-18T11:25:40.199Z,26.19
2018-06-18T11:28:22.483Z,26.57
2018-06-18T11:31:00.721Z,26.98
2018-06-18T11:33:41.204Z,27.36
2018-06-18T11:36:29.900Z,27.63
2018-06-18T11:39:15.394Z,27.37
2018-06-18T11:41:57.251Z,26.94
2018-06-18T11:44:38.398Z,26.61
2018-06-18T11:47:20.580Z,26.76
2018-06-18T11:50:05.302Z,27.07
2018-06-18T11:52:45.963Z,26.99
2018-06-18T11:55:27.482Z,27.15
2018-06-18T11:58:11.983Z,27.50
2018-06-18T12:01:02.339Z,27.77
2018-06-18T12:03:48.491Z,27.80
2018-06-18T12:06:32.558Z,27.39
2018-06-18T12:09:18.990Z,26.95
2018-06-18T12:12:00.740Z,26.99
2018-06-18T13:14:08.298Z,29.30
2018-06-18T13:16:51.067Z,28.99
2018-06-18T13:19:30.359Z,28.64
2018-06-18T13:22:14.336Z,28.55
2018-06-18T13:24:57.297Z,28.78
2018-06-18T13:27:41.084Z,29.07
2018-06-18T14:17:58.180Z,28.49
2018-06-18T14:20:38.958Z,28.69
2018-06-18T14:23:18.862Z,29.05
2018-06-18T14:26:02.225Z,29.41
2018-06-18T14:28:42.917Z,29.48
2018-06-18T14:31:32.140Z,29.60
2018-06-18T15:00:49.941Z,28.38
2018-06-18T15:03:29.686Z,28.17
2018-06-18T15:06:11.520Z,28.02
2018-06-18T15:08:53.982Z,27.98
2018-06-18T15:11:34.240Z,27.93
2018-06-18T15:14:19.503Z,27.99
2018-06-18T15:16:57.976Z,27.94
2018-06-18T15:19:35.464Z,27.77
2018-06-18T15:22:11.659Z,27.64
2018-06-18T15:25:15.139Z,27.56
2018-06-18T15:27:55.020Z,27.47
2018-06-18T15:30:39.585Z,27.48
2018-06-18T16:26:50.561Z,25.93
2018-06-18T16:29:30.767Z,25.86
2018-06-18T16:32:17.476Z,25.81
2018-06-18T16:34:57.261Z,25.83
2018-06-18T16:37:38.400Z,25.77
2018-06-18T16:40:21.479Z,25.80
2018-06-18T16:43:03.295Z,25.77
2018-06-18T16:45:44.562Z,25.73
2018-06-18T16:48:26.661Z,25.65
2018-06-18T16:51:08.820Z,25.49
2018-06-18T16:53:51.859Z,25.48
2018-06-18T16:56:35.118Z,25.57
2018-06-18T16:59:14.139Z,25.70
2018-06-18T17:01:53.279Z,25.77
2018-06-18T17:04:33.676Z,25.79
2018-06-18T17:07:14.439Z,25.77
2018-06-18T17:09:53.584Z,25.71
2018-06-18T17:12:41.500Z,25.61
2018-06-18T17:15:21.620Z,25.61
2018-06-18T17:18:04.341Z,25.61
2018-06-18T17:20:50.234Z,25.65
2018-06-18T17:23:35.820Z,25.66
2018-06-18T17:59:07.924Z,24.48
2018-06-18T18:01:53.702Z,24.37
2018-06-18T18:04:33.556Z,24.31
2018-06-18T18:07:16.120Z,24.25
2018-06-18T18:09:54.826Z,24.22
2018-06-18T18:12:42.136Z,24.22
2018-06-18T18:15:23.665Z,24.23
2018-06-18T18:18:06.487Z,24.26
2018-06-18T18:20:46.619Z,24.26
2018-06-18T18:23:27.419Z,24.29
2018-06-18T18:26:06.826Z,24.29
2018-06-18T18:28:50.400Z,24.29
2018-06-18T18:31:28.929Z,24.25
2018-06-18T18:34:08.899Z,24.23
2018-06-18T18:36:58.920Z,24.15
2018-06-18T18:39:41.137Z,24.13
2018-06-18T18:42:23.642Z,24.12
2018-06-18T18:45:06.561Z,24.09
2018-06-18T18:47:46.817Z,24.06
2018-06-18T18:50:29.058Z,24.02
2018-06-18T18:53:13.660Z,23.99
2018-06-18T18:56:04.921Z,23.92
2018-06-18T18:59:49.583Z,23.80
2018-06-18T19:02:29.765Z,23.62
2018-06-18T19:05:12.479Z,23.53
2018-06-18T19:07:56.877Z,23.45
2018-06-18T19:10:44.241Z,23.33
2018-06-18T19:13:32.559Z,23.25
2018-06-18T20:39:32.386Z,20.80
2018-06-18T20:42:16.879Z,20.76
2018-06-18T20:44:56.361Z,20.71
2018-06-18T20:47:36.158Z,20.65
2018-06-18T22:04:29.831Z,19.11
2018-06-18T22:32:09.119Z,18.77
2018-06-18T22:34:50.166Z,18.77
2018-06-18T22:37:30.099Z,18.77
2018-06-18T22:40:13.126Z,18.76
2018-06-18T22:42:53.505Z,18.75
2018-06-18T22:45:35.681Z,18.71
2018-06-18T22:48:16.340Z,18.63
2018-06-18T22:50:55.959Z,18.56
2018-06-18T22:56:54.058Z,18.44
2018-06-18T22:59:33.657Z,18.36
2018-06-18T23:02:13.680Z,18.36
2018-06-18T23:04:53.958Z,18.35
2018-06-18T23:07:33.577Z,18.28
2018-06-18T23:10:13.037Z,18.21
2018-06-18T23:12:54.222Z,18.15
2018-06-18T23:15:35.702Z,18.12
2018-06-18T23:18:16.723Z,18.08
2018-06-18T23:20:57.820Z,18.10
2018-06-18T23:23:37.079Z,18.10
2018-06-18T23:26:22.602Z,18.07
2018-06-18T23:29:09.239Z,18.06
2018-06-18T23:31:49.079Z,18.04
2018-06-18T23:34:28.939Z,17.99
2018-06-18T23:37:09.341Z,17.95
2018-06-18T23:39:49.403Z,17.90
2018-06-18T23:42:29.659Z,17.81
2018-06-18T23:45:09.898Z,17.80
2018-06-18T23:47:50.201Z,17.76
2018-06-18T23:50:30.038Z,17.73
2018-06-18T23:53:09.979Z,17.74
2018-06-18T23:55:50.483Z,17.75
2018-06-18T23:58:30.600Z,17.76
